Time;durP1;ratioP1;P1;durP2;ratioP2;P2;SDS_P1;SDS_P2;PMS_P1;PMS_P2;Temp;Humidity;BMP_temperature;BMP_pressure;BME280_temperature;BME280_humidity;BME280_pressure;Samples;Min_cycle;Max_cycle;Signal;HPM_P1;HPM_P2
2022/03/07 00:00:38;;;;;;;11.05;8.25;;;;;;;;;;4929809;29;20055;-79
2022/03/07 00:03:04;;;;;;;11.88;9.10;;;;;;;;;;4953251;28;20047;-80
2022/03/07 00:05:30;;;;;;;9.52;8.50;;;;;;;;;;4957056;28;20035;-79
2022/03/07 00:07:56;;;;;;;10.40;9.18;;;;;;;;;;4948685;28;20043;-80
2022/03/07 00:10:22;;;;;;;13.07;9.00;;;;;;;;;;4945770;29;20130;-80
2022/03/07 00:12:48;;;;;;;9.43;8.20;;;;;;;;;;4951275;28;20043;-80
2022/03/07 00:15:15;;;;;;;10.60;8.52;;;;;;;;;;4957026;28;20053;-79
2022/03/07 00:17:41;;;;;;;12.98;9.10;;;;;;;;;;4957118;28;20476;-79
2022/03/07 00:20:07;;;;;;;11.82;9.40;;;;;;;;;;4957126;28;20073;-80
2022/03/07 00:22:33;;;;;;;12.68;9.13;;;;;;;;;;4940876;28;20089;-80
2022/03/07 00:24:59;;;;;;;11.35;8.95;;;;;;;;;;4957206;28;20103;-80
2022/03/07 00:27:25;;;;;;;11.90;8.90;;;;;;;;;;4956222;28;20451;-79
2022/03/07 00:29:51;;;;;;;10.20;8.45;;;;;;;;;;4956645;28;20093;-80
2022/03/07 00:32:17;;;;;;;10.38;8.38;;;;;;;;;;4940198;28;20061;-80
2022/03/07 00:34:43;;;;;;;9.68;8.30;;;;;;;;;;4953538;28;20448;-79
2022/03/07 00:37:09;;;;;;;10.18;9.10;;;;;;;;;;4957046;28;20058;-80
2022/03/07 00:39:35;;;;;;;9.80;8.45;;;;;;;;;;4938832;28;20047;-79
2022/03/07 00:42:01;;;;;;;9.95;8.52;;;;;;;;;;4950474;28;20105;-79
2022/03/07 00:44:27;;;;;;;8.70;7.85;;;;;;;;;;4948987;28;20124;-80
2022/03/07 00:46:53;;;;;;;10.45;8.52;;;;;;;;;;4956643;28;20031;-80
2022/03/07 00:49:19;;;;;;;14.55;9.32;;;;;;;;;;4937759;28;20129;-80
2022/03/07 00:51:45;;;;;;;10.88;8.65;;;;;;;;;;4955843;28;20074;-80
2022/03/07 00:54:11;;;;;;;9.27;8.25;;;;;;;;;;4956890;28;20521;-80
2022/03/07 00:56:37;;;;;;;8.52;7.72;;;;;;;;;;4957269;28;20030;-80
2022/03/07 00:59:03;;;;;;;10.63;8.68;;;;;;;;;;4938782;28;20045;-79
2022/03/07 01:01:29;;;;;;;12.38;9.70;;;;;;;;;;4956814;28;20053;-80
2022/03/07 01:03:55;;;;;;;11.13;9.75;;;;;;;;;;4957084;28;20038;-80
2022/03/07 01:06:21;;;;;;;13.30;10.27;;;;;;;;;;4955664;28;20066;-80
2022/03/07 01:08:47;;;;;;;12.27;10.00;;;;;;;;;;4955267;28;20047;-80
2022/03/07 01:11:13;;;;;;;13.02;11.10;;;;;;;;;;4956049;28;20050;-80
2022/03/07 01:13:39;;;;;;;14.25;10.95;;;;;;;;;;4950123;29;20039;-80
2022/03/07 01:16:05;;;;;;;13.80;9.95;;;;;;;;;;4954595;28;20054;-80
2022/03/07 01:18:31;;;;;;;12.20;9.73;;;;;;;;;;4956457;28;20050;-80
2022/03/07 01:20:57;;;;;;;10.10;9.20;;;;;;;;;;4956887;28;20039;-80
2022/03/07 01:23:23;;;;;;;9.88;8.60;;;;;;;;;;4940525;28;20050;-80
2022/03/07 01:25:49;;;;;;;10.60;8.02;;;;;;;;;;4931215;29;20495;-80
2022/03/07 01:28:15;;;;;;;11.32;8.65;;;;;;;;;;4937650;28;20043;-80
2022/03/07 01:30:41;;;;;;;9.50;7.88;;;;;;;;;;4937655;29;20133;-80
2022/03/07 01:33:07;;;;;;;9.48;8.40;;;;;;;;;;4941843;28;20039;-80
2022/03/07 01:35:33;;;;;;;11.20;8.25;;;;;;;;;;4937570;29;20110;-80
2022/03/07 01:37:59;;;;;;;13.40;8.70;;;;;;;;;;4945856;28;20047;-80
2022/03/07 01:40:25;;;;;;;11.27;9.30;;;;;;;;;;4960997;28;20043;-80
2022/03/07 01:42:51;;;;;;;11.73;9.48;;;;;;;;;;4941820;29;20039;-80
2022/03/07 01:45:18;;;;;;;10.63;9.40;;;;;;;;;;4944013;28;20043;-80
2022/03/07 01:47:44;;;;;;;10.35;8.23;;;;;;;;;;4928239;28;20077;-80
2022/03/07 01:50:13;;;;;;;12.20;8.93;;;;;;;;;;4960277;28;20042;-80
2022/03/07 01:52:40;;;;;;;12.10;8.98;;;;;;;;;;4944310;28;20039;-80
2022/03/07 01:55:07;;;;;;;9.52;8.52;;;;;;;;;;4960537;28;20043;-80
2022/03/07 01:57:36;;;;;;;10.45;8.63;;;;;;;;;;4960970;28;20069;-80
2022/03/07 02:00:02;;;;;;;10.60;8.95;;;;;;;;;;4960551;28;20039;-80
2022/03/07 02:02:28;;;;;;;10.60;8.60;;;;;;;;;;4953028;28;20065;-80
2022/03/07 02:04:54;;;;;;;14.65;8.75;;;;;;;;;;4941572;29;20366;-80
2022/03/07 02:07:20;;;;;;;9.50;8.50;;;;;;;;;;4959946;28;20046;-80
2022/03/07 02:09:46;;;;;;;10.57;8.65;;;;;;;;;;4944468;28;20050;-80
2022/03/07 02:12:12;;;;;;;9.23;8.25;;;;;;;;;;4958976;28;20039;-80
2022/03/07 02:14:38;;;;;;;9.23;8.25;;;;;;;;;;4957108;28;20039;-80
2022/03/07 02:17:04;;;;;;;11.43;8.52;;;;;;;;;;4937400;28;20134;-80
2022/03/07 02:19:30;;;;;;;9.20;8.15;;;;;;;;;;4951407;29;20129;-80
2022/03/07 02:22:01;;;;;;;9.70;8.70;;;;;;;;;;4954747;28;20043;-80
2022/03/07 02:24:28;;;;;;;10.55;8.73;;;;;;;;;;4960376;28;20050;-80
2022/03/07 02:26:58;;;;;;;11.48;9.07;;;;;;;;;;4943837;28;20054;-80
2022/03/07 02:29:24;;;;;;;10.48;8.43;;;;;;;;;;4943434;28;20049;-81
2022/03/07 02:31:50;;;;;;;11.85;8.70;;;;;;;;;;4959571;28;20130;-80
2022/03/07 02:34:16;;;;;;;10.52;7.53;;;;;;;;;;4942163;28;20050;-80
2022/03/07 02:36:43;;;;;;;11.00;8.30;;;;;;;;;;4951819;28;20055;-81
2022/03/07 02:39:10;;;;;;;11.63;8.23;;;;;;;;;;4959713;28;20057;-81
2022/03/07 02:41:37;;;;;;;9.95;8.05;;;;;;;;;;4959646;28;20047;-81
2022/03/07 02:44:03;;;;;;;11.95;8.35;;;;;;;;;;4959422;28;20397;-81
2022/03/07 02:46:29;;;;;;;9.20;7.95;;;;;;;;;;4933139;29;20054;-80
2022/03/07 02:48:55;;;;;;;12.25;8.30;;;;;;;;;;4955465;28;20038;-81
2022/03/07 02:51:21;;;;;;;11.43;8.35;;;;;;;;;;4943815;28;20050;-81
2022/03/07 02:53:49;;;;;;;10.60;8.05;;;;;;;;;;4950131;29;20503;-81
2022/03/07 02:56:15;;;;;;;9.65;8.35;;;;;;;;;;4952776;28;20049;-81
2022/03/07 02:58:41;;;;;;;12.80;8.95;;;;;;;;;;4959469;28;20054;-81
2022/03/07 03:01:07;;;;;;;9.20;8.30;;;;;;;;;;4959932;28;20076;-81
2022/03/07 03:03:33;;;;;;;11.68;8.18;;;;;;;;;;4933085;28;20039;-81
2022/03/07 03:05:59;;;;;;;10.95;8.38;;;;;;;;;;4943442;28;20354;-81
2022/03/07 03:08:25;;;;;;;10.13;7.80;;;;;;;;;;4958447;28;20046;-81
2022/03/07 03:10:52;;;;;;;10.10;8.15;;;;;;;;;;4958957;28;20038;-81
2022/03/07 03:13:20;;;;;;;10.05;8.30;;;;;;;;;;4959450;28;20046;-81
2022/03/07 03:15:46;;;;;;;10.73;8.00;;;;;;;;;;4959979;28;20054;-81
2022/03/07 03:18:12;;;;;;;9.68;8.25;;;;;;;;;;4959567;28;20098;-81
2022/03/07 03:20:38;;;;;;;9.80;7.22;;;;;;;;;;4958665;28;20043;-81
2022/03/07 03:23:04;;;;;;;10.85;7.82;;;;;;;;;;4949816;29;20054;-81
2022/03/07 03:25:30;;;;;;;8.63;7.80;;;;;;;;;;4952427;28;20035;-81
2022/03/07 03:27:56;;;;;;;10.40;7.90;;;;;;;;;;4951672;28;20051;-81
2022/03/07 03:30:22;;;;;;;10.23;7.70;;;;;;;;;;4957923;28;20125;-81
2022/03/07 03:32:48;;;;;;;10.10;7.18;;;;;;;;;;4957750;28;20054;-81
2022/03/07 03:35:14;;;;;;;8.82;6.50;;;;;;;;;;4956971;28;20051;-81
2022/03/07 03:37:40;;;;;;;8.80;7.38;;;;;;;;;;4957497;28;20073;-81
2022/03/07 03:40:07;;;;;;;10.57;7.47;;;;;;;;;;4941915;28;20068;-81
2022/03/07 03:42:33;;;;;;;9.15;7.25;;;;;;;;;;4957610;28;20098;-82
2022/03/07 03:44:59;;;;;;;8.98;6.40;;;;;;;;;;4952596;28;20090;-82
2022/03/07 03:47:25;;;;;;;8.43;6.47;;;;;;;;;;4940814;29;20097;-82
2022/03/07 03:49:51;;;;;;;8.20;6.93;;;;;;;;;;4956935;28;20059;-82
2022/03/07 03:52:18;;;;;;;7.57;6.85;;;;;;;;;;4957574;28;20046;-82
2022/03/07 03:54:44;;;;;;;6.80;6.20;;;;;;;;;;4931376;28;20047;-82
2022/03/07 03:57:10;;;;;;;7.22;6.22;;;;;;;;;;4958811;28;20049;-82
2022/03/07 03:59:36;;;;;;;8.35;6.95;;;;;;;;;;4958019;28;20666;-82
2022/03/07 04:02:02;;;;;;;7.55;6.78;;;;;;;;;;4940039;28;20133;-82
2022/03/07 04:04:28;;;;;;;7.78;6.85;;;;;;;;;;4957654;28;20145;-82
2022/03/07 04:06:54;;;;;;;9.68;7.45;;;;;;;;;;4955007;28;20161;-82
2022/03/07 04:09:21;;;;;;;7.63;6.90;;;;;;;;;;4955834;28;20054;-82
2022/03/07 04:11:47;;;;;;;7.95;7.15;;;;;;;;;;4956197;28;20050;-82
2022/03/07 04:14:14;;;;;;;9.40;7.38;;;;;;;;;;4955204;28;20396;-82
2022/03/07 04:16:40;;;;;;;9.23;7.68;;;;;;;;;;4954247;28;20520;-82
2022/03/07 04:19:06;;;;;;;9.35;7.13;;;;;;;;;;4939431;28;20100;-82
2022/03/07 04:21:33;;;;;;;8.82;7.97;;;;;;;;;;4954602;28;20038;-83
2022/03/07 04:23:59;;;;;;;8.82;7.18;;;;;;;;;;4955737;28;20050;-83
2022/03/07 04:26:25;;;;;;;9.57;7.10;;;;;;;;;;4955257;28;20051;-83
2022/03/07 04:28:52;;;;;;;7.85;7.00;;;;;;;;;;4955409;28;20047;-83
2022/03/07 04:31:18;;;;;;;9.20;7.10;;;;;;;;;;4939562;28;20051;-83
2022/03/07 04:33:44;;;;;;;8.75;7.82;;;;;;;;;;4951842;28;20126;-83
2022/03/07 04:36:10;;;;;;;9.02;8.13;;;;;;;;;;4952253;29;20143;-83
2022/03/07 04:38:36;;;;;;;9.65;8.68;;;;;;;;;;4951433;29;20051;-83
2022/03/07 04:41:02;;;;;;;10.68;8.18;;;;;;;;;;4952791;29;20061;-83
2022/03/07 04:43:28;;;;;;;9.15;8.15;;;;;;;;;;4953152;29;20039;-80
2022/03/07 04:45:54;;;;;;;10.90;9.02;;;;;;;;;;4954060;29;20078;-81
2022/03/07 04:48:20;;;;;;;11.60;9.13;;;;;;;;;;4941008;29;20594;-80
2022/03/07 04:50:47;;;;;;;10.80;9.20;;;;;;;;;;4935946;29;20071;-80
2022/03/07 04:53:13;;;;;;;10.77;8.63;;;;;;;;;;4941948;29;20043;-82
2022/03/07 04:55:39;;;;;;;9.48;8.50;;;;;;;;;;4954365;29;20086;-82
2022/03/07 04:58:05;;;;;;;10.30;8.68;;;;;;;;;;4954469;29;20082;-82
2022/03/07 05:00:32;;;;;;;11.10;8.85;;;;;;;;;;4953893;29;20032;-82
2022/03/07 05:02:57;;;;;;;9.38;8.32;;;;;;;;;;4953746;29;20039;-82
2022/03/07 05:05:23;;;;;;;9.98;8.23;;;;;;;;;;4953372;29;20112;-82
2022/03/07 05:07:49;;;;;;;11.25;8.82;;;;;;;;;;4940094;28;20046;-82
2022/03/07 05:10:16;;;;;;;10.70;8.90;;;;;;;;;;4944234;29;20039;-82
2022/03/07 05:12:42;;;;;;;11.60;8.93;;;;;;;;;;4938379;29;20127;-82
2022/03/07 05:15:08;;;;;;;11.07;8.20;;;;;;;;;;4954538;29;20047;-82
2022/03/07 05:17:45;;;;;;;8.93;7.90;;;;;;;;;;4933844;29;20040;-82
2022/03/07 05:20:12;;;;;;;10.15;8.05;;;;;;;;;;4935110;29;20054;-82
2022/03/07 05:22:41;;;;;;;10.25;8.27;;;;;;;;;;4929469;29;20051;-82
2022/03/07 05:25:07;;;;;;;10.07;8.43;;;;;;;;;;4938191;29;20043;-82
2022/03/07 05:27:33;;;;;;;10.98;9.05;;;;;;;;;;4938196;29;20094;-82
2022/03/07 05:29:59;;;;;;;9.45;8.45;;;;;;;;;;4953913;29;20043;-82
2022/03/07 05:32:25;;;;;;;12.43;8.77;;;;;;;;;;4938252;29;20819;-82
2022/03/07 05:34:51;;;;;;;13.88;8.90;;;;;;;;;;4938754;28;20040;-82
2022/03/07 05:37:17;;;;;;;9.68;8.25;;;;;;;;;;4937111;29;20055;-82
2022/03/07 05:39:43;;;;;;;9.75;7.82;;;;;;;;;;4946220;28;20043;-82
2022/03/07 05:42:09;;;;;;;11.68;8.23;;;;;;;;;;4941259;28;20047;-82
2022/03/07 05:44:35;;;;;;;11.32;8.93;;;;;;;;;;4957357;28;20097;-82
2022/03/07 05:47:01;;;;;;;10.80;8.88;;;;;;;;;;4956672;28;20039;-82
2022/03/07 05:49:27;;;;;;;10.18;8.68;;;;;;;;;;4957082;28;20043;-83
2022/03/07 05:51:53;;;;;;;10.52;8.65;;;;;;;;;;4957051;28;20038;-82
2022/03/07 05:54:19;;;;;;;8.95;8.00;;;;;;;;;;4934049;29;20401;-83
2022/03/07 05:56:45;;;;;;;9.75;8.77;;;;;;;;;;4922574;29;20122;-83
2022/03/07 05:59:11;;;;;;;10.82;7.47;;;;;;;;;;4951929;28;20039;-81
2022/03/07 06:01:37;;;;;;;11.63;8.30;;;;;;;;;;4956506;28;20053;-82
2022/03/07 06:04:03;;;;;;;8.27;7.32;;;;;;;;;;4940591;28;20051;-82
2022/03/07 06:06:29;;;;;;;8.50;7.25;;;;;;;;;;4952600;28;20396;-82
2022/03/07 06:08:55;;;;;;;11.98;8.98;;;;;;;;;;4956513;28;20052;-82
2022/03/07 06:11:21;;;;;;;11.27;8.73;;;;;;;;;;4936804;28;20134;-81
2022/03/07 06:13:47;;;;;;;10.00;8.68;;;;;;;;;;4949500;28;20124;-82
2022/03/07 06:16:13;;;;;;;10.00;7.93;;;;;;;;;;4956444;28;20650;-81
2022/03/07 06:18:39;;;;;;;10.02;8.35;;;;;;;;;;4956374;28;20401;-81
2022/03/07 06:21:05;;;;;;;9.48;7.63;;;;;;;;;;4943998;28;20129;-81
2022/03/07 06:23:32;;;;;;;10.32;8.68;;;;;;;;;;4958513;28;20145;-81
2022/03/07 06:25:58;;;;;;;12.05;8.05;;;;;;;;;;4930734;28;20133;-81
2022/03/07 06:28:24;;;;;;;9.25;8.20;;;;;;;;;;4939308;29;20058;-82
2022/03/07 06:30:50;;;;;;;10.73;8.38;;;;;;;;;;4924990;29;20043;-82
2022/03/07 06:33:17;;;;;;;13.55;8.65;;;;;;;;;;4945218;28;20520;-82
2022/03/07 06:35:43;;;;;;;10.95;8.15;;;;;;;;;;4958922;28;20456;-82
2022/03/07 06:38:09;;;;;;;9.77;7.97;;;;;;;;;;4949760;29;20058;-83
2022/03/07 06:40:35;;;;;;;11.77;8.40;;;;;;;;;;4954533;28;20043;-83
2022/03/07 06:43:01;;;;;;;10.85;7.97;;;;;;;;;;4956666;28;20047;-81
2022/03/07 06:45:30;;;;;;;9.73;7.97;;;;;;;;;;4959460;28;20043;-82
2022/03/07 06:47:57;;;;;;;8.55;7.38;;;;;;;;;;4933773;28;20047;-82
2022/03/07 06:50:23;;;;;;;10.02;7.10;;;;;;;;;;4957214;28;20043;-82
2022/03/07 06:52:49;;;;;;;8.68;6.90;;;;;;;;;;4943058;28;20101;-82
2022/03/07 06:55:15;;;;;;;8.60;7.70;;;;;;;;;;4959674;28;20042;-84
2022/03/07 06:57:42;;;;;;;8.82;7.93;;;;;;;;;;4952040;28;20039;-84
2022/03/07 07:00:10;;;;;;;11.15;7.95;;;;;;;;;;4950498;28;20106;-84
2022/03/07 07:02:36;;;;;;;10.25;8.00;;;;;;;;;;4943763;28;20066;-82
2022/03/07 07:05:03;;;;;;;10.52;7.85;;;;;;;;;;4959100;28;20125;-83
2022/03/07 07:07:29;;;;;;;12.55;7.15;;;;;;;;;;4946684;29;20040;-82
2022/03/07 07:09:55;;;;;;;11.63;7.18;;;;;;;;;;4949040;28;20070;-83
2022/03/07 07:12:22;;;;;;;12.55;9.30;;;;;;;;;;4957954;28;20476;-83
2022/03/07 07:14:48;;;;;;;10.52;7.97;;;;;;;;;;4948638;29;20071;-84
2022/03/07 07:17:14;;;;;;;11.55;8.02;;;;;;;;;;4940421;28;20535;-84
2022/03/07 07:19:40;;;;;;;13.32;8.68;;;;;;;;;;4950483;28;20034;-83
2022/03/07 07:22:06;;;;;;;11.48;8.00;;;;;;;;;;4958754;28;20073;-84
2022/03/07 07:24:32;;;;;;;12.23;7.75;;;;;;;;;;4924769;29;20135;-83
2022/03/07 07:26:58;;;;;;;9.00;8.13;;;;;;;;;;4954975;28;20042;-83
2022/03/07 07:29:24;;;;;;;11.80;8.55;;;;;;;;;;4956222;28;20055;-83
2022/03/07 07:31:51;;;;;;;9.43;6.85;;;;;;;;;;4956941;28;20050;-84
2022/03/07 07:34:17;;;;;;;11.27;7.07;;;;;;;;;;4957187;28;20105;-83
2022/03/07 07:36:44;;;;;;;9.23;6.75;;;;;;;;;;4955325;28;20057;-84
2022/03/07 07:39:10;;;;;;;7.38;6.40;;;;;;;;;;4955981;28;20090;-83
2022/03/07 07:41:36;;;;;;;7.90;6.70;;;;;;;;;;4957255;28;20042;-83
2022/03/07 07:44:02;;;;;;;10.57;9.48;;;;;;;;;;4941570;28;20073;-83
2022/03/07 07:46:28;;;;;;;9.80;7.78;;;;;;;;;;4957107;28;20046;-84
2022/03/07 07:48:54;;;;;;;12.82;7.90;;;;;;;;;;4948973;28;20400;-83
2022/03/07 07:51:20;;;;;;;12.23;9.15;;;;;;;;;;4940910;28;20043;-84
2022/03/07 07:53:46;;;;;;;9.93;8.52;;;;;;;;;;4957017;28;20428;-83
2022/03/07 07:56:12;;;;;;;11.30;7.35;;;;;;;;;;4941231;28;20046;-84
2022/03/07 07:58:39;;;;;;;7.57;6.68;;;;;;;;;;4957324;28;20060;-84
2022/03/07 08:01:05;;;;;;;8.55;6.57;;;;;;;;;;4957319;28;20101;-84
2022/03/07 08:03:31;;;;;;;9.38;6.90;;;;;;;;;;4941291;28;20496;-83
2022/03/07 08:05:57;;;;;;;8.60;7.40;;;;;;;;;;4945549;28;20118;-82
2022/03/07 08:08:23;;;;;;;9.90;7.35;;;;;;;;;;4937053;29;20142;-82
2022/03/07 08:10:49;;;;;;;10.55;8.73;;;;;;;;;;4937514;29;20047;-81
2022/03/07 08:13:16;;;;;;;11.07;7.93;;;;;;;;;;4937791;29;20386;-82
2022/03/07 08:15:42;;;;;;;11.40;9.20;;;;;;;;;;4947591;28;20081;-82
2022/03/07 08:18:08;;;;;;;13.75;10.80;;;;;;;;;;4938090;29;20062;-81
2022/03/07 08:20:34;;;;;;;13.77;10.73;;;;;;;;;;4953940;29;20050;-81
2022/03/07 08:23:00;;;;;;;15.95;10.45;;;;;;;;;;4955585;28;20042;-81
2022/03/07 08:25:26;;;;;;;12.20;8.95;;;;;;;;;;4956642;28;20051;-81
2022/03/07 08:27:53;;;;;;;9.55;8.30;;;;;;;;;;4956331;28;20046;-81
2022/03/07 08:30:20;;;;;;;11.98;9.52;;;;;;;;;;4956581;28;20039;-81
2022/03/07 08:32:46;;;;;;;9.32;7.47;;;;;;;;;;4956582;28;20042;-81
2022/03/07 08:35:13;;;;;;;9.82;7.97;;;;;;;;;;4956504;28;20142;-81
2022/03/07 08:37:39;;;;;;;10.80;7.70;;;;;;;;;;4956609;28;20063;-81
2022/03/07 08:40:07;;;;;;;15.35;8.07;;;;;;;;;;4954646;28;20051;-81
2022/03/07 08:42:33;;;;;;;10.10;7.28;;;;;;;;;;4933822;28;20039;-81
2022/03/07 08:44:59;;;;;;;10.30;5.30;;;;;;;;;;4956585;28;20448;-81
2022/03/07 08:47:25;;;;;;;6.75;6.03;;;;;;;;;;4956504;28;20050;-81
2022/03/07 08:49:53;;;;;;;9.25;6.47;;;;;;;;;;4956380;28;20047;-81
2022/03/07 08:52:19;;;;;;;8.30;5.95;;;;;;;;;;4956649;28;20496;-81
2022/03/07 08:54:47;;;;;;;7.20;6.07;;;;;;;;;;4956724;28;20049;-81
2022/03/07 08:57:13;;;;;;;6.22;4.55;;;;;;;;;;4956650;28;20053;-81
2022/03/07 08:59:39;;;;;;;8.73;5.80;;;;;;;;;;4940255;28;20125;-81
2022/03/07 09:02:06;;;;;;;6.75;4.22;;;;;;;;;;4955260;28;20130;-82
2022/03/07 09:04:32;;;;;;;4.50;4.10;;;;;;;;;;4940331;28;20074;-81
2022/03/07 09:06:58;;;;;;;7.13;4.60;;;;;;;;;;4956678;28;20039;-82
2022/03/07 09:09:24;;;;;;;5.93;3.75;;;;;;;;;;4957001;28;20053;-81
2022/03/07 09:11:50;;;;;;;6.55;4.10;;;;;;;;;;4956605;28;20050;-81
2022/03/07 09:14:16;;;;;;;5.43;3.65;;;;;;;;;;4956537;28;20043;-81
2022/03/07 09:16:42;;;;;;;4.72;4.03;;;;;;;;;;4956337;28;20082;-81
2022/03/07 09:19:08;;;;;;;7.25;4.47;;;;;;;;;;4923261;29;20054;-81
2022/03/07 09:21:35;;;;;;;5.88;4.18;;;;;;;;;;4936780;29;20043;-81
2022/03/07 09:24:01;;;;;;;7.32;4.20;;;;;;;;;;4937102;29;20086;-81
2022/03/07 09:26:27;;;;;;;8.52;4.25;;;;;;;;;;4937212;29;20118;-80
2022/03/07 09:28:53;;;;;;;6.28;4.15;;;;;;;;;;4938129;28;20469;-80
2022/03/07 09:31:19;;;;;;;4.82;3.90;;;;;;;;;;4956282;28;20039;-80
2022/03/07 09:33:46;;;;;;;4.30;3.33;;;;;;;;;;4956073;28;20043;-80
2022/03/07 09:36:12;;;;;;;7.53;3.10;;;;;;;;;;4952963;28;20055;-79
2022/03/07 09:38:38;;;;;;;3.45;2.63;;;;;;;;;;4936909;29;20055;-80
2022/03/07 09:41:05;;;;;;;6.60;3.47;;;;;;;;;;4937014;29;20078;-80
2022/03/07 09:43:31;;;;;;;6.50;3.25;;;;;;;;;;4936964;29;20098;-80
2022/03/07 09:45:57;;;;;;;5.22;3.55;;;;;;;;;;4951760;28;20043;-80
2022/03/07 09:48:24;;;;;;;6.53;3.28;;;;;;;;;;4956063;28;20047;-80
2022/03/07 09:50:50;;;;;;;6.60;3.20;;;;;;;;;;4940285;28;20093;-80
2022/03/07 09:53:17;;;;;;;5.03;3.10;;;;;;;;;;4940052;28;20049;-80
2022/03/07 09:55:44;;;;;;;7.10;3.53;;;;;;;;;;4943456;28;20042;-80
2022/03/07 09:58:10;;;;;;;4.80;2.97;;;;;;;;;;4959700;28;20097;-80
2022/03/07 10:00:36;;;;;;;6.57;3.00;;;;;;;;;;4959502;28;20046;-80
2022/03/07 10:03:05;;;;;;;6.05;3.03;;;;;;;;;;4960124;28;20042;-80
2022/03/07 10:05:36;;;;;;;5.72;3.10;;;;;;;;;;4959853;28;20050;-80
2022/03/07 10:08:02;;;;;;;5.35;3.22;;;;;;;;;;4958862;28;20043;-80
2022/03/07 10:10:29;;;;;;;5.45;3.15;;;;;;;;;;4940311;28;20133;-79
2022/03/07 10:12:55;;;;;;;7.50;2.67;;;;;;;;;;4943434;28;20045;-80
2022/03/07 10:15:22;;;;;;;6.22;2.80;;;;;;;;;;4943569;28;20039;-80
2022/03/07 10:17:53;;;;;;;3.60;2.50;;;;;;;;;;4959321;28;20133;-79
2022/03/07 10:20:20;;;;;;;5.35;2.95;;;;;;;;;;4959205;28;20057;-80
2022/03/07 10:22:47;;;;;;;4.60;2.15;;;;;;;;;;4943355;28;20608;-80
2022/03/07 10:25:14;;;;;;;5.30;2.22;;;;;;;;;;4938867;28;20397;-80
2022/03/07 10:27:44;;;;;;;5.25;2.28;;;;;;;;;;4931581;28;20039;-80
2022/03/07 10:30:11;;;;;;;4.32;2.15;;;;;;;;;;4959293;28;20061;-80
2022/03/07 10:32:37;;;;;;;4.38;2.25;;;;;;;;;;4959310;28;20493;-80
2022/03/07 10:35:03;;;;;;;4.43;2.40;;;;;;;;;;4958660;28;20043;-79
2022/03/07 10:37:33;;;;;;;4.43;2.00;;;;;;;;;;4958994;28;20066;-79
2022/03/07 10:39:59;;;;;;;2.97;2.05;;;;;;;;;;4942836;28;20081;-80
2022/03/07 10:42:25;;;;;;;2.70;2.00;;;;;;;;;;4953427;29;20074;-80
2022/03/07 10:44:51;;;;;;;8.63;2.08;;;;;;;;;;4945667;28;20062;-80
2022/03/07 10:47:18;;;;;;;5.47;2.63;;;;;;;;;;4958172;28;20539;-80
2022/03/07 10:49:49;;;;;;;4.55;2.20;;;;;;;;;;4958513;28;20511;-79
2022/03/07 10:52:15;;;;;;;5.22;2.35;;;;;;;;;;4958516;28;20034;-80
2022/03/07 10:54:41;;;;;;;4.35;2.28;;;;;;;;;;4958807;28;20161;-79
2022/03/07 10:57:08;;;;;;;4.20;2.25;;;;;;;;;;4958170;28;20085;-79
2022/03/07 10:59:34;;;;;;;16.92;2.65;;;;;;;;;;4942424;29;20043;-79
2022/03/07 11:02:01;;;;;;;3.72;2.17;;;;;;;;;;4939250;29;20051;-79
2022/03/07 11:04:27;;;;;;;4.57;1.90;;;;;;;;;;4938122;29;20097;-79
2022/03/07 11:06:53;;;;;;;4.60;2.53;;;;;;;;;;4938830;29;20355;-79
2022/03/07 11:09:20;;;;;;;4.47;2.15;;;;;;;;;;4923149;29;20047;-80
2022/03/07 11:11:46;;;;;;;5.55;2.38;;;;;;;;;;4939126;29;20035;-79
2022/03/07 11:14:13;;;;;;;4.72;2.20;;;;;;;;;;4944178;28;20472;-79
2022/03/07 11:16:40;;;;;;;4.95;2.30;;;;;;;;;;4958039;28;20043;-80
2022/03/07 11:19:07;;;;;;;5.68;2.22;;;;;;;;;;4958272;28;20352;-79
2022/03/07 11:21:36;;;;;;;3.63;2.00;;;;;;;;;;4942318;28;20129;-80
2022/03/07 11:24:01;;;;;;;3.50;2.63;;;;;;;;;;4957637;28;20496;-79
2022/03/07 11:26:28;;;;;;;5.90;3.50;;;;;;;;;;4957860;28;20129;-79
2022/03/07 11:28:57;;;;;;;6.85;2.65;;;;;;;;;;4941618;28;20413;-79
2022/03/07 11:31:26;;;;;;;5.20;2.95;;;;;;;;;;4956577;28;20412;-79
2022/03/07 11:33:52;;;;;;;3.50;2.60;;;;;;;;;;4957535;28;20077;-79
2022/03/07 11:36:19;;;;;;;3.03;2.50;;;;;;;;;;4957362;28;20065;-79
2022/03/07 11:38:52;;;;;;;4.68;2.70;;;;;;;;;;4941637;28;20059;-80
2022/03/07 11:41:23;;;;;;;4.25;2.70;;;;;;;;;;4957913;28;20401;-80
2022/03/07 11:43:54;;;;;;;5.25;2.80;;;;;;;;;;4957650;28;20053;-80
2022/03/07 11:46:33;;;;;;;4.50;2.88;;;;;;;;;;4956256;28;20500;-80
2022/03/07 11:49:00;;;;;;;3.17;2.25;;;;;;;;;;4957439;28;20134;-80
2022/03/07 11:51:30;;;;;;;3.78;2.22;;;;;;;;;;4974018;23;20059;-79
2022/03/07 11:53:57;;;;;;;6.05;2.40;;;;;;;;;;4973657;28;20051;-80
2022/03/07 11:56:27;;;;;;;4.40;1.83;;;;;;;;;;4973390;28;20042;-79
2022/03/07 11:58:55;;;;;;;2.63;1.27;;;;;;;;;;4973464;28;20057;-79
2022/03/07 12:01:25;;;;;;;3.65;1.90;;;;;;;;;;4973064;28;20043;-79
2022/03/07 12:03:51;;;;;;;2.75;1.50;;;;;;;;;;4954430;28;20051;-79
2022/03/07 12:06:18;;;;;;;2.38;1.20;;;;;;;;;;4953889;29;20043;-79
2022/03/07 12:08:45;;;;;;;1.27;1.00;;;;;;;;;;4968577;28;20042;-79
2022/03/07 12:11:23;;;;;;;2.58;1.30;;;;;;;;;;4973423;28;20041;-80
2022/03/07 12:13:50;;;;;;;2.63;1.35;;;;;;;;;;4972953;28;20042;-80
2022/03/07 12:16:29;;;;;;;2.75;1.42;;;;;;;;;;4956758;28;20046;-79
2022/03/07 12:19:06;;;;;;;2.22;1.40;;;;;;;;;;4955769;28;20046;-80
2022/03/07 12:21:32;;;;;;;2.72;1.30;;;;;;;;;;4971480;28;20058;-79
2022/03/07 12:23:59;;;;;;;2.47;1.60;;;;;;;;;;4956582;28;20205;-79
2022/03/07 12:26:25;;;;;;;3.28;1.50;;;;;;;;;;4955862;28;20405;-79
2022/03/07 12:28:51;;;;;;;1.25;1.10;;;;;;;;;;4956463;28;20121;-79
2022/03/07 12:31:18;;;;;;;3.47;1.42;;;;;;;;;;4972733;28;20497;-78
2022/03/07 12:33:48;;;;;;;1.45;1.15;;;;;;;;;;4956363;28;20392;-78
2022/03/07 12:36:15;;;;;;;2.40;1.13;;;;;;;;;;4956337;28;20650;-79
2022/03/07 12:38:51;;;;;;;2.08;1.40;;;;;;;;;;4956547;28;20073;-78
2022/03/07 12:41:36;;;;;;;2.00;1.30;;;;;;;;;;4955344;28;20054;-79
2022/03/07 12:44:03;;;;;;;2.45;1.40;;;;;;;;;;4956346;28;20069;-78
2022/03/07 12:46:29;;;;;;;2.30;1.20;;;;;;;;;;4972218;28;20134;-79
2022/03/07 12:48:57;;;;;;;3.00;1.50;;;;;;;;;;4972168;28;20085;-78
2022/03/07 12:51:23;;;;;;;1.88;1.35;;;;;;;;;;4972179;28;20448;-79
2022/03/07 12:53:50;;;;;;;2.22;1.40;;;;;;;;;;4972025;28;20039;-79
2022/03/07 12:56:20;;;;;;;1.83;0.95;;;;;;;;;;4955874;28;20082;-79
2022/03/07 12:58:47;;;;;;;1.42;1.10;;;;;;;;;;4954918;28;20047;-79
2022/03/07 13:01:13;;;;;;;2.00;1.20;;;;;;;;;;4972079;28;20047;-79
2022/03/07 13:03:39;;;;;;;2.65;1.30;;;;;;;;;;4955914;28;20061;-79
2022/03/07 13:06:05;;;;;;;4.00;1.63;;;;;;;;;;4955935;28;20133;-79
2022/03/07 13:08:31;;;;;;;2.90;1.33;;;;;;;;;;4972112;28;20065;-78
2022/03/07 13:10:57;;;;;;;3.40;1.70;;;;;;;;;;4972257;28;20120;-79
2022/03/07 13:13:23;;;;;;;3.03;1.20;;;;;;;;;;4954973;28;20069;-79
2022/03/07 13:15:49;;;;;;;2.08;1.13;;;;;;;;;;4972016;28;20528;-79
2022/03/07 13:18:16;;;;;;;3.10;1.25;;;;;;;;;;4972122;28;20038;-78
2022/03/07 13:20:42;;;;;;;1.50;1.40;;;;;;;;;;4971816;28;20050;-79
2022/03/07 13:23:08;;;;;;;3.50;1.60;;;;;;;;;;4971714;28;20038;-79
2022/03/07 13:25:39;;;;;;;2.05;1.42;;;;;;;;;;4955764;28;20457;-78
2022/03/07 13:28:09;;;;;;;2.13;1.52;;;;;;;;;;4956416;28;20070;-79
2022/03/07 13:30:35;;;;;;;4.63;1.60;;;;;;;;;;4946468;29;20043;-79
2022/03/07 13:33:08;;;;;;;1.35;1.25;;;;;;;;;;4956240;29;20043;-79
2022/03/07 13:35:34;;;;;;;1.98;1.13;;;;;;;;;;4956576;29;20102;-79
2022/03/07 13:38:00;;;;;;;2.17;1.00;;;;;;;;;;4956504;29;20422;-79
2022/03/07 13:40:36;;;;;;;1.85;1.38;;;;;;;;;;4956367;29;20047;-79
2022/03/07 13:43:03;;;;;;;2.28;1.05;;;;;;;;;;4956320;29;20094;-78
2022/03/07 13:45:30;;;;;;;2.53;1.55;;;;;;;;;;4966534;28;20078;-78
2022/03/07 13:47:58;;;;;;;2.72;1.40;;;;;;;;;;4972493;28;20043;-78
2022/03/07 13:50:25;;;;;;;2.38;1.52;;;;;;;;;;4955806;29;20090;-78
2022/03/07 13:53:00;;;;;;;4.43;1.80;;;;;;;;;;4956199;29;20150;-78
2022/03/07 13:55:27;;;;;;;1.90;1.60;;;;;;;;;;4956005;29;20388;-78
2022/03/07 13:57:55;;;;;;;2.88;1.52;;;;;;;;;;4939917;29;20043;-78
2022/03/07 14:00:22;;;;;;;2.95;1.70;;;;;;;;;;4955701;29;20083;-78
2022/03/07 14:02:49;;;;;;;1.95;1.70;;;;;;;;;;4955469;28;20071;-78
2022/03/07 14:05:17;;;;;;;2.75;2.13;;;;;;;;;;4939728;29;20051;-78
2022/03/07 14:07:46;;;;;;;2.20;2.00;;;;;;;;;;4966381;28;20050;-77
2022/03/07 14:10:14;;;;;;;2.67;1.67;;;;;;;;;;4974747;28;20075;-77
2022/03/07 14:12:41;;;;;;;1.85;1.60;;;;;;;;;;4974783;28;20042;-77
2022/03/07 14:15:08;;;;;;;3.60;2.10;;;;;;;;;;4974618;28;20473;-77
2022/03/07 14:17:34;;;;;;;2.35;1.88;;;;;;;;;;4974923;28;20094;-77
2022/03/07 14:20:01;;;;;;;4.28;1.80;;;;;;;;;;4957402;28;20074;-77
2022/03/07 14:22:27;;;;;;;3.13;1.85;;;;;;;;;;4975036;28;20041;-78
2022/03/07 14:24:54;;;;;;;2.17;1.65;;;;;;;;;;4958598;28;20082;-78
2022/03/07 14:27:28;;;;;;;3.05;2.13;;;;;;;;;;4974943;28;20047;-78
2022/03/07 14:29:55;;;;;;;3.42;1.90;;;;;;;;;;4939281;29;20054;-78
2022/03/07 14:32:21;;;;;;;5.30;2.38;;;;;;;;;;4955676;29;20393;-78
2022/03/07 14:34:49;;;;;;;2.00;1.73;;;;;;;;;;4955103;29;20051;-78